Grande Europa — ICGE — position and weather

sailwx.info

Track history (hours):
 
Tides and Currents Weather Stations Pressure Air Temp Water Temp Dewpoint Dewpoint Depression Visibility Wind Speed Wind Dir Waves Ship Positions

Grande Europa

Last reported at 2016-Aug-26 13:33 UTC. Time now 2016-Aug-26 13:44 UTC.
Position N 58°01' E 011°42'.

Length 183 m; draft 7.8 m.

Type: Cargo ship. MMSI: 247206000.

Date/timePositionNaut miles runAvg speedWind from/ knotsBaromVisibWave heightAir tempDewpointWater temp
2016-Aug-26 13:33N 58°01' E 011°42'0 0.0
2016-Aug-26 12:33N 58°01' E 011°42'0 0.0
2016-Aug-26 11:33N 58°01' E 011°42'0 0.0
2016-Aug-26 10:33N 58°01' E 011°42'0 0.0
2016-Aug-26 09:33N 58°01' E 011°42'0 0.0
2016-Aug-26 08:33N 58°01' E 011°42'0 0.0
2016-Aug-26 07:33N 58°01' E 011°42'0 0.0
2016-Aug-26 06:33N 58°01' E 011°42'0 0.0
2016-Aug-26 04:33N 58°01' E 011°42'5 5.3
2016-Aug-26 03:34N 57°56' E 011°40'1413.6
2016-Aug-26 02:33N 57°51' E 011°15'1717.5
2016-Aug-26 01:33N 57°51' E 010°43'1717.4
2016-Aug-26 00:33N 57°50' E 010°10'1817.4
2016-Aug-25 23:33N 57°46' E 009°38'3417.1
2016-Aug-25 21:33N 57°25' E 008°48'1717.2
2016-Aug-25 20:32N 57°13' E 008°25'1717.1
2016-Aug-25 19:32N 56°60' E 008°04'1817.6
2016-Aug-25 18:32N 56°44' E 007°49'1818.3
2016-Aug-25 17:33N 56°27' E 007°40'1818.2
2016-Aug-25 16:33N 56°10' E 007°32'1817.9
2016-Aug-25 15:33N 55°52' E 007°23'1817.8
2016-Aug-25 14:33N 55°35' E 007°15'1716.9
2016-Aug-25 13:33N 55°26' E 007°41'1515.2
2016-Aug-25 12:33N 55°25' E 008°07'1111.2
2016-Aug-25 11:33N 55°27' E 008°26'0 0.4
2016-Aug-25 10:31N 55°28' E 008°27'0 0.0
2016-Aug-25 09:31N 55°28' E 008°27'0 0.0
2016-Aug-25 08:34N 55°28' E 008°27'0 0.0
2016-Aug-25 07:31N 55°28' E 008°27'0 0.0
2016-Aug-25 06:31N 55°28' E 008°27'0 0.0
2016-Aug-25 04:31N 55°28' E 008°27'0 0.0
2016-Aug-25 03:34N 55°28' E 008°27'0 0.0
2016-Aug-25 02:34N 55°28' E 008°27'0 0.0
2016-Aug-25 01:34N 55°28' E 008°27'0 0.0
2016-Aug-25 00:28N 55°28' E 008°27'0 0.0
2016-Aug-24 23:31N 55°28' E 008°27'0 0.0
2016-Aug-24 22:34N 55°28' E 008°27'0 0.0
2016-Aug-24 21:31N 55°28' E 008°27'0 0.0
2016-Aug-24 20:34N 55°28' E 008°27'1 1.4
2016-Aug-24 19:33N 55°28' E 008°25'1110.8
2016-Aug-24 18:33N 55°23' E 008°08'1615.5
2016-Aug-24 17:33N 55°14' E 007°46'1717.5
2016-Aug-24 16:33N 55°03' E 007°22'1717.3
2016-Aug-24 15:34N 54°54' E 006°57'1917.5
2016-Aug-24 14:28N 54°44' E 006°28'1717.8
2016-Aug-24 13:29N 54°36' E 006°02'1718.2
2016-Aug-24 12:33N 54°28' E 005°36'1818.3
2016-Aug-24 11:33N 54°18' E 005°09'1818.2
2016-Aug-24 10:33N 54°07' E 004°44'1817.9
2016-Aug-24 09:33N 53°52' E 004°29'1818.1
2016-Aug-24 08:33N 53°39' E 004°06'1818.0
2016-Aug-24 07:33N 53°28' E 003°43'1818.4
2016-Aug-24 06:33N 53°11' E 003°30'3718.4
2016-Aug-24 04:33N 52°38' E 003°05'1817.8
2016-Aug-24 03:34N 52°21' E 002°53'1716.7
2016-Aug-24 02:34N 52°07' E 002°40'1616.2
2016-Aug-24 01:34N 51°51' E 002°37'1515.3
2016-Aug-24 00:34N 51°38' E 002°24'1515.3
2016-Aug-23 23:33N 51°26' E 002°08'1515.1
2016-Aug-23 22:33N 51°15' E 001°51'1514.9
2016-Aug-23 21:34N 51°04' E 001°37'1515.3
2016-Aug-23 20:33N 50°50' E 001°24'1615.7
2016-Aug-23 19:32N 50°37' E 001°10'1715.8
2016-Aug-23 18:26N 50°29' E 000°45'1415.8
2016-Aug-23 17:34N 50°26' E 000°24'1615.7
2016-Aug-23 16:33N 50°21' E 000°01'1615.9
2016-Aug-23 15:33N 50°16' W 000°23'1616.4
2016-Aug-23 14:34N 50°11' W 000°47'1918.0
2016-Aug-23 13:32N 50°07' W 001°15'2019.5
2016-Aug-23 12:30N 50°01' W 001°45'2120.3
2016-Aug-23 11:28N 49°56' W 002°17'1819.8
2016-Aug-23 10:33N 49°51' W 002°44'1918.9
2016-Aug-23 09:33N 49°50' W 003°13'1918.9
2016-Aug-23 08:33N 49°51' W 003°42'1918.6
2016-Aug-23 07:34N 49°51' W 004°11'1818.1
2016-Aug-23 06:33N 49°51' W 004°39'1917.7
2016-Aug-23 05:29N 49°51' W 005°09'1516.4
2016-Aug-23 04:33N 49°52' W 005°32'1716.6
2016-Aug-23 03:33N 49°52' W 005°58'1615.6
2016-Aug-23 02:34N 50°08' W 006°02'1716.7
2016-Aug-23 01:33N 50°24' W 006°08'1817.5
2016-Aug-23 00:32N 50°37' W 006°27'1717.4
2016-Aug-22 23:33N 50°49' W 006°46'1717.4
2016-Aug-22 22:33N 51°02' W 007°05'1717.5
2016-Aug-22 21:33N 51°15' W 007°24'1817.8
2016-Aug-22 20:33N 51°27' W 007°44'1817.8
2016-Aug-22 19:34N 51°40' W 008°05'1312.5
2016-Aug-22 18:33N 51°50' W 008°16'2 2.2
2016-Aug-22 17:33N 51°50' W 008°20'0 0.0
2016-Aug-22 16:34N 51°50' W 008°20'0 0.0
2016-Aug-22 15:34N 51°50' W 008°20'0 0.0
2016-Aug-22 14:33N 51°50' W 008°20'0 0.0
2016-Aug-22 13:34N 51°50' W 008°20'0 0.0
2016-Aug-22 12:34N 51°50' W 008°20'0 0.0
2016-Aug-22 11:33N 51°50' W 008°20'0 0.0
2016-Aug-22 10:34N 51°50' W 008°20'2 2.2
2016-Aug-22 09:34N 51°50' W 008°16'1313.1
2016-Aug-22 08:33N 51°44' W 007°57'1716.9
2016-Aug-22 07:33N 51°42' W 007°30'5616.9
2016-Aug-22 04:14N 51°33' W 006°00'1116.8
2016-Aug-22 03:33N 51°32' W 005°42'1816.5
2016-Aug-22 02:28N 51°29' W 005°13'1617.5
2016-Aug-22 01:33N 51°27' W 004°48'1918.8
2016-Aug-22 00:34N 51°25' W 004°18'2120.6
2016-Aug-21 23:34N 51°22' W 003°46'2019.7
2016-Aug-21 22:33N 51°21' W 003°14'1414.1
2016-Aug-21 21:33N 51°28' W 002°54'7 6.7
2016-Aug-21 20:31N 51°30' W 002°43'0 0.4
2016-Aug-21 19:31N 51°30' W 002°43'0 0.0
2016-Aug-21 18:28N 51°30' W 002°43'0 0.0
2016-Aug-21 17:31N 51°30' W 002°43'0 0.0
2016-Aug-21 16:31N 51°30' W 002°43'0 0.0
2016-Aug-21 15:31N 51°30' W 002°43'0 0.0
2016-Aug-21 14:31N 51°30' W 002°43'0 0.0
2016-Aug-21 13:31N 51°30' W 002°43'0 0.0
2016-Aug-21 12:31N 51°30' W 002°43'0 0.0
2016-Aug-21 11:31N 51°30' W 002°43'0 0.0
2016-Aug-21 10:31N 51°30' W 002°43'0 0.0
2016-Aug-21 09:33N 51°30' W 002°43'1 1.3
2016-Aug-21 08:33N 51°30' W 002°45'1313.4
2016-Aug-21 07:33N 51°24' W 003°04'2014.1
2016-Aug-21 06:10N 51°20' W 003°35'813.2
2016-Aug-21 05:33N 51°21' W 003°48'2 2.2
2016-Aug-21 04:27N 51°20' W 003°44'1618.2
2016-Aug-21 03:33N 51°17' W 004°10'1717.3
2016-Aug-21 02:33N 51°08' W 004°32'1616.0
2016-Aug-21 01:34N 50°57' W 004°51'1515.4
2016-Aug-21 00:34N 50°46' W 005°09'1514.9
2016-Aug-20 23:34N 50°36' W 005°26'1514.7
2016-Aug-20 22:34N 50°26' W 005°43'1413.3
2016-Aug-20 21:32N 50°14' W 005°53'69016.8
2016-Aug-19 04:32N 39°05' W 009°51'1818.3
2016-Aug-19 03:34N 38°47' W 009°52'1717.0
2016-Aug-19 02:33N 38°32' W 009°41'1919.0
2016-Aug-19 01:33N 38°23' W 009°20'1616.2
2016-Aug-19 00:33N 38°26' W 008°59'7 7.2
2016-Aug-18 23:32N 38°31' W 008°53'0 0.0
2016-Aug-18 22:33N 38°31' W 008°53'0 0.0
2016-Aug-18 21:33N 38°31' W 008°53'0 0.0
2016-Aug-18 20:33N 38°31' W 008°53'1 0.8
2016-Aug-18 19:33N 38°31' W 008°54'8 8.0
2016-Aug-18 18:33N 38°25' W 009°01'2 1.8
2016-Aug-18 17:33N 38°23' W 009°01'7 7.0
2016-Aug-18 16:33N 38°16' W 009°03'1817.9
2016-Aug-18 15:33N 37°59' W 009°07'1817.9
2016-Aug-18 14:33N 37°41' W 009°11'1817.8
2016-Aug-18 13:33N 37°24' W 009°16'1918.4
2016-Aug-18 12:33N 37°05' W 009°20'1716.7
2016-Aug-18 11:33N 36°49' W 009°15'1717.0
2016-Aug-18 10:33N 36°41' W 008°56'3618.1
2016-Aug-18 08:33N 36°30' W 008°14'1918.4
2016-Aug-18 07:33N 36°24' W 007°52'1918.9
2016-Aug-18 06:33N 36°18' W 007°30'9218.3
2016-Aug-18 01:32N 35°58' W 005°39'1717.5
2016-Aug-18 00:33N 36°02' W 005°18'9117.5
2016-Aug-17 19:19N 36°15' W 003°26'1317.2
2016-Aug-17 18:33N 36°18' W 003°10'1818.1
2016-Aug-17 17:33N 36°21' W 002°48'1918.7
2016-Aug-17 16:33N 36°24' W 002°25'1918.8
2016-Aug-17 15:32N 36°28' W 002°02'1818.5
2016-Aug-17 14:34N 36°32' W 001°40'1918.6
2016-Aug-17 13:33N 36°37' W 001°18'2019.0
2016-Aug-17 12:30N 36°43' W 000°54'1818.5
2016-Aug-17 11:32N 36°47' W 000°32'2018.4
2016-Aug-17 10:26N 36°52' W 000°08'1618.4
2016-Aug-17 09:33N 36°57' E 000°12'1919.1
2016-Aug-17 08:33N 37°02' E 000°35'2018.8
2016-Aug-17 07:28N 37°07' E 000°59'1718.9
2016-Aug-17 06:33N 37°12' E 001°20'1919.0
2016-Aug-17 05:33N 37°17' E 001°43'1918.3
2016-Aug-17 04:30N 37°22' E 002°07'2719.2
2016-Aug-17 03:05N 37°28' E 002°40'  
Track history (hours):
 
Tides and Currents Weather Stations Pressure Air Temp Water Temp Dewpoint Dewpoint Depression Visibility Wind Speed Wind Dir Waves Ship Positions

Grande Europa

Last reported at 2016-Aug-26 13:33 UTC. Time now 2016-Aug-26 13:44 UTC.
Position N 58°01' E 011°42'.

Length 183 m; draft 7.8 m.

Type: Cargo ship. MMSI: 247206000.

Date/timePositionNaut miles runAvg speedWind from/ knotsBaromVisibWave heightAir tempDewpointWater temp
2016-Aug-26 13:33N 58°01' E 011°42'0 0.0
2016-Aug-26 12:33N 58°01' E 011°42'0 0.0
2016-Aug-26 11:33N 58°01' E 011°42'0 0.0
2016-Aug-26 10:33N 58°01' E 011°42'0 0.0
2016-Aug-26 09:33N 58°01' E 011°42'0 0.0
2016-Aug-26 08:33N 58°01' E 011°42'0 0.0
2016-Aug-26 07:33N 58°01' E 011°42'0 0.0
2016-Aug-26 06:33N 58°01' E 011°42'0 0.0
2016-Aug-26 04:33N 58°01' E 011°42'5 5.3
2016-Aug-26 03:34N 57°56' E 011°40'1413.6
2016-Aug-26 02:33N 57°51' E 011°15'1717.5
2016-Aug-26 01:33N 57°51' E 010°43'1717.4
2016-Aug-26 00:33N 57°50' E 010°10'1817.4
2016-Aug-25 23:33N 57°46' E 009°38'3417.1
2016-Aug-25 21:33N 57°25' E 008°48'1717.2
2016-Aug-25 20:32N 57°13' E 008°25'1717.1
2016-Aug-25 19:32N 56°60' E 008°04'1817.6
2016-Aug-25 18:32N 56°44' E 007°49'1818.3
2016-Aug-25 17:33N 56°27' E 007°40'1818.2
2016-Aug-25 16:33N 56°10' E 007°32'1817.9
2016-Aug-25 15:33N 55°52' E 007°23'1817.8
2016-Aug-25 14:33N 55°35' E 007°15'1716.9
2016-Aug-25 13:33N 55°26' E 007°41'1515.2
2016-Aug-25 12:33N 55°25' E 008°07'1111.2
2016-Aug-25 11:33N 55°27' E 008°26'0 0.4
2016-Aug-25 10:31N 55°28' E 008°27'0 0.0
2016-Aug-25 09:31N 55°28' E 008°27'0 0.0
2016-Aug-25 08:34N 55°28' E 008°27'0 0.0
2016-Aug-25 07:31N 55°28' E 008°27'0 0.0
2016-Aug-25 06:31N 55°28' E 008°27'0 0.0
2016-Aug-25 04:31N 55°28' E 008°27'0 0.0
2016-Aug-25 03:34N 55°28' E 008°27'0 0.0
2016-Aug-25 02:34N 55°28' E 008°27'0 0.0
2016-Aug-25 01:34N 55°28' E 008°27'0 0.0
2016-Aug-25 00:28N 55°28' E 008°27'0 0.0
2016-Aug-24 23:31N 55°28' E 008°27'0 0.0
2016-Aug-24 22:34N 55°28' E 008°27'0 0.0
2016-Aug-24 21:31N 55°28' E 008°27'0 0.0
2016-Aug-24 20:34N 55°28' E 008°27'1 1.4
2016-Aug-24 19:33N 55°28' E 008°25'1110.8
2016-Aug-24 18:33N 55°23' E 008°08'1615.5
2016-Aug-24 17:33N 55°14' E 007°46'1717.5
2016-Aug-24 16:33N 55°03' E 007°22'1717.3
2016-Aug-24 15:34N 54°54' E 006°57'1917.5
2016-Aug-24 14:28N 54°44' E 006°28'1717.8
2016-Aug-24 13:29N 54°36' E 006°02'1718.2
2016-Aug-24 12:33N 54°28' E 005°36'1818.3
2016-Aug-24 11:33N 54°18' E 005°09'1818.2
2016-Aug-24 10:33N 54°07' E 004°44'1817.9
2016-Aug-24 09:33N 53°52' E 004°29'1818.1
2016-Aug-24 08:33N 53°39' E 004°06'1818.0
2016-Aug-24 07:33N 53°28' E 003°43'1818.4
2016-Aug-24 06:33N 53°11' E 003°30'3718.4
2016-Aug-24 04:33N 52°38' E 003°05'1817.8
2016-Aug-24 03:34N 52°21' E 002°53'1716.7
2016-Aug-24 02:34N 52°07' E 002°40'1616.2
2016-Aug-24 01:34N 51°51' E 002°37'1515.3
2016-Aug-24 00:34N 51°38' E 002°24'1515.3
2016-Aug-23 23:33N 51°26' E 002°08'1515.1
2016-Aug-23 22:33N 51°15' E 001°51'1514.9
2016-Aug-23 21:34N 51°04' E 001°37'1515.3
2016-Aug-23 20:33N 50°50' E 001°24'1615.7
2016-Aug-23 19:32N 50°37' E 001°10'1715.8
2016-Aug-23 18:26N 50°29' E 000°45'1415.8
2016-Aug-23 17:34N 50°26' E 000°24'1615.7
2016-Aug-23 16:33N 50°21' E 000°01'1615.9
2016-Aug-23 15:33N 50°16' W 000°23'1616.4
2016-Aug-23 14:34N 50°11' W 000°47'1918.0
2016-Aug-23 13:32N 50°07' W 001°15'2019.5
2016-Aug-23 12:30N 50°01' W 001°45'2120.3
2016-Aug-23 11:28N 49°56' W 002°17'1819.8
2016-Aug-23 10:33N 49°51' W 002°44'1918.9
2016-Aug-23 09:33N 49°50' W 003°13'1918.9
2016-Aug-23 08:33N 49°51' W 003°42'1918.6
2016-Aug-23 07:34N 49°51' W 004°11'1818.1
2016-Aug-23 06:33N 49°51' W 004°39'1917.7
2016-Aug-23 05:29N 49°51' W 005°09'1516.4
2016-Aug-23 04:33N 49°52' W 005°32'1716.6
2016-Aug-23 03:33N 49°52' W 005°58'1615.6
2016-Aug-23 02:34N 50°08' W 006°02'1716.7
2016-Aug-23 01:33N 50°24' W 006°08'1817.5
2016-Aug-23 00:32N 50°37' W 006°27'1717.4
2016-Aug-22 23:33N 50°49' W 006°46'1717.4
2016-Aug-22 22:33N 51°02' W 007°05'1717.5
2016-Aug-22 21:33N 51°15' W 007°24'1817.8
2016-Aug-22 20:33N 51°27' W 007°44'1817.8
2016-Aug-22 19:34N 51°40' W 008°05'1312.5
2016-Aug-22 18:33N 51°50' W 008°16'2 2.2
2016-Aug-22 17:33N 51°50' W 008°20'0 0.0
2016-Aug-22 16:34N 51°50' W 008°20'0 0.0
2016-Aug-22 15:34N 51°50' W 008°20'0 0.0
2016-Aug-22 14:33N 51°50' W 008°20'0 0.0
2016-Aug-22 13:34N 51°50' W 008°20'0 0.0
2016-Aug-22 12:34N 51°50' W 008°20'0 0.0
2016-Aug-22 11:33N 51°50' W 008°20'0 0.0
2016-Aug-22 10:34N 51°50' W 008°20'2 2.2
2016-Aug-22 09:34N 51°50' W 008°16'1313.1
2016-Aug-22 08:33N 51°44' W 007°57'1716.9
2016-Aug-22 07:33N 51°42' W 007°30'5616.9
2016-Aug-22 04:14N 51°33' W 006°00'1116.8
2016-Aug-22 03:33N 51°32' W 005°42'1816.5
2016-Aug-22 02:28N 51°29' W 005°13'1617.5
2016-Aug-22 01:33N 51°27' W 004°48'1918.8
2016-Aug-22 00:34N 51°25' W 004°18'2120.6
2016-Aug-21 23:34N 51°22' W 003°46'2019.7
2016-Aug-21 22:33N 51°21' W 003°14'1414.1
2016-Aug-21 21:33N 51°28' W 002°54'7 6.7
2016-Aug-21 20:31N 51°30' W 002°43'0 0.4
2016-Aug-21 19:31N 51°30' W 002°43'0 0.0
2016-Aug-21 18:28N 51°30' W 002°43'0 0.0
2016-Aug-21 17:31N 51°30' W 002°43'0 0.0
2016-Aug-21 16:31N 51°30' W 002°43'0 0.0
2016-Aug-21 15:31N 51°30' W 002°43'0 0.0
2016-Aug-21 14:31N 51°30' W 002°43'0 0.0
2016-Aug-21 13:31N 51°30' W 002°43'0 0.0
2016-Aug-21 12:31N 51°30' W 002°43'0 0.0
2016-Aug-21 11:31N 51°30' W 002°43'0 0.0
2016-Aug-21 10:31N 51°30' W 002°43'0 0.0
2016-Aug-21 09:33N 51°30' W 002°43'1 1.3
2016-Aug-21 08:33N 51°30' W 002°45'1313.4
2016-Aug-21 07:33N 51°24' W 003°04'2014.1
2016-Aug-21 06:10N 51°20' W 003°35'813.2
2016-Aug-21 05:33N 51°21' W 003°48'2 2.2
2016-Aug-21 04:27N 51°20' W 003°44'1618.2
2016-Aug-21 03:33N 51°17' W 004°10'1717.3
2016-Aug-21 02:33N 51°08' W 004°32'1616.0
2016-Aug-21 01:34N 50°57' W 004°51'1515.4
2016-Aug-21 00:34N 50°46' W 005°09'1514.9
2016-Aug-20 23:34N 50°36' W 005°26'1514.7
2016-Aug-20 22:34N 50°26' W 005°43'1413.3
2016-Aug-20 21:32N 50°14' W 005°53'69016.8
2016-Aug-19 04:32N 39°05' W 009°51'1818.3
2016-Aug-19 03:34N 38°47' W 009°52'1717.0
2016-Aug-19 02:33N 38°32' W 009°41'1919.0
2016-Aug-19 01:33N 38°23' W 009°20'1616.2
2016-Aug-19 00:33N 38°26' W 008°59'7 7.2
2016-Aug-18 23:32N 38°31' W 008°53'0 0.0
2016-Aug-18 22:33N 38°31' W 008°53'0 0.0
2016-Aug-18 21:33N 38°31' W 008°53'0 0.0
2016-Aug-18 20:33N 38°31' W 008°53'1 0.8
2016-Aug-18 19:33N 38°31' W 008°54'8 8.0
2016-Aug-18 18:33N 38°25' W 009°01'2 1.8
2016-Aug-18 17:33N 38°23' W 009°01'7 7.0
2016-Aug-18 16:33N 38°16' W 009°03'1817.9
2016-Aug-18 15:33N 37°59' W 009°07'1817.9
2016-Aug-18 14:33N 37°41' W 009°11'1817.8
2016-Aug-18 13:33N 37°24' W 009°16'1918.4
2016-Aug-18 12:33N 37°05' W 009°20'1716.7
2016-Aug-18 11:33N 36°49' W 009°15'1717.0
2016-Aug-18 10:33N 36°41' W 008°56'3618.1
2016-Aug-18 08:33N 36°30' W 008°14'1918.4
2016-Aug-18 07:33N 36°24' W 007°52'1918.9
2016-Aug-18 06:33N 36°18' W 007°30'9218.3
2016-Aug-18 01:32N 35°58' W 005°39'1717.5
2016-Aug-18 00:33N 36°02' W 005°18'9117.5
2016-Aug-17 19:19N 36°15' W 003°26'1317.2
2016-Aug-17 18:33N 36°18' W 003°10'1818.1
2016-Aug-17 17:33N 36°21' W 002°48'1918.7
2016-Aug-17 16:33N 36°24' W 002°25'1918.8
2016-Aug-17 15:32N 36°28' W 002°02'1818.5
2016-Aug-17 14:34N 36°32' W 001°40'1918.6
2016-Aug-17 13:33N 36°37' W 001°18'2019.0
2016-Aug-17 12:30N 36°43' W 000°54'1818.5
2016-Aug-17 11:32N 36°47' W 000°32'2018.4
2016-Aug-17 10:26N 36°52' W 000°08'1618.4
2016-Aug-17 09:33N 36°57' E 000°12'1919.1
2016-Aug-17 08:33N 37°02' E 000°35'2018.8
2016-Aug-17 07:28N 37°07' E 000°59'1718.9
2016-Aug-17 06:33N 37°12' E 001°20'1919.0
2016-Aug-17 05:33N 37°17' E 001°43'1918.3
2016-Aug-17 04:30N 37°22' E 002°07'2719.2
2016-Aug-17 03:05N 37°28' E 002°40'  

Dump ship's entire track history